createdAt,value
2023-04-29T00:03:49.766Z,8.98
2023-04-29T00:08:53.256Z,8.88
2023-04-29T00:13:57.250Z,8.73
2023-04-29T00:18:59.704Z,8.70
2023-04-29T00:24:01.623Z,8.90
2023-04-29T00:29:03.437Z,8.98
2023-04-29T00:34:05.416Z,8.95
2023-04-29T00:39:07.961Z,8.99
2023-04-29T00:44:10.346Z,9.02
2023-04-29T00:49:13.920Z,9.03
2023-04-29T00:54:18.438Z,9.07
2023-04-29T00:59:21.183Z,9.16
2023-04-29T01:04:23.118Z,9.38
2023-04-29T01:09:53.162Z,9.59
2023-04-29T01:15:09.371Z,9.74
2023-04-29T01:20:12.350Z,9.75
2023-04-29T01:25:14.348Z,9.88
2023-04-29T01:30:40.741Z,9.93
2023-04-29T01:35:43.033Z,9.97
2023-04-29T01:40:56.664Z,10.04
2023-04-29T01:46:01.154Z,10.33
2023-04-29T01:51:03.188Z,10.37
2023-04-29T01:56:05.522Z,10.40
2023-04-29T02:01:20.812Z,10.27
2023-04-29T02:06:24.638Z,10.26
2023-04-29T02:11:35.821Z,10.22
2023-04-29T02:16:37.784Z,10.13
2023-04-29T02:21:42.212Z,10.07
2023-04-29T02:26:44.028Z,9.93
2023-04-29T02:31:45.868Z,9.95
2023-04-29T02:36:47.705Z,9.92
2023-04-29T02:41:49.541Z,9.91
2023-04-29T02:46:51.385Z,9.95
2023-04-29T02:51:53.332Z,10.27
2023-04-29T02:56:55.953Z,10.32
2023-04-29T03:01:58.179Z,10.48
2023-04-29T03:07:00.087Z,10.58
2023-04-29T03:12:03.102Z,10.59
2023-04-29T03:17:05.436Z,10.60
2023-04-29T03:22:11.576Z,10.67
2023-04-29T03:27:14.986Z,10.67
2023-04-29T03:32:16.933Z,10.73
2023-04-29T03:37:20.025Z,10.75
2023-04-29T03:42:28.506Z,10.73
2023-04-29T03:47:30.492Z,10.67
2023-04-29T03:52:32.912Z,10.69
2023-04-29T03:57:42.147Z,10.64
2023-04-29T04:02:45.680Z,10.65
2023-04-29T04:07:48.414Z,10.65
2023-04-29T04:13:10.533Z,10.68
2023-04-29T04:18:12.578Z,10.62
2023-04-29T04:23:15.099Z,10.62
2023-04-29T04:28:18.932Z,10.66
2023-04-29T04:33:34.286Z,10.72
2023-04-29T04:38:36.244Z,10.70
2023-04-29T04:43:42.918Z,10.73
2023-04-29T04:48:54.802Z,10.69
2023-04-29T04:53:57.279Z,10.79
2023-04-29T04:59:01.419Z,10.76
2023-04-29T05:04:03.816Z,10.70
2023-04-29T05:09:06.587Z,10.68
2023-04-29T05:14:09.904Z,10.69
2023-04-29T05:19:11.814Z,10.62
2023-04-29T05:24:15.596Z,10.66
2023-04-29T05:29:17.858Z,10.67
2023-04-29T05:34:25.932Z,10.69
2023-04-29T05:39:27.888Z,10.84
2023-04-29T05:44:43.080Z,10.86
2023-04-29T05:49:44.728Z,11.09
2023-04-29T05:54:46.418Z,11.01
2023-04-29T05:59:48.409Z,10.94
2023-04-29T06:04:50.251Z,11.01
2023-04-29T06:10:15.326Z,11.07
2023-04-29T06:15:19.230Z,10.95
2023-04-29T06:20:21.444Z,10.80
2023-04-29T06:25:23.327Z,10.74
2023-04-29T06:30:26.822Z,10.73
2023-04-29T06:35:29.684Z,10.77
2023-04-29T06:40:37.199Z,10.76
2023-04-29T06:45:53.718Z,10.91
2023-04-29T06:50:58.509Z,10.94
2023-04-29T06:56:00.143Z,10.93
2023-04-29T07:01:04.079Z,11.12
2023-04-29T07:06:06.535Z,11.12
2023-04-29T07:11:08.210Z,11.25
2023-04-29T07:16:18.388Z,11.50
2023-04-29T07:21:20.140Z,12.19
2023-04-29T07:26:22.622Z,12.70
2023-04-29T07:31:24.352Z,12.72
2023-04-29T07:36:28.695Z,12.49
2023-04-29T07:41:31.397Z,12.54
2023-04-29T07:46:33.804Z,12.82
2023-04-29T07:51:35.493Z,12.80
2023-04-29T07:56:37.219Z,12.80
2023-04-29T08:01:41.068Z,12.47
2023-04-29T08:06:42.907Z,13.09
2023-04-29T08:11:47.006Z,13.60
2023-04-29T08:16:48.681Z,13.53
2023-04-29T08:21:52.113Z,12.89
2023-04-29T08:26:54.359Z,12.61
2023-04-29T08:31:56.071Z,13.00
2023-04-29T08:36:57.752Z,12.70
2023-04-29T08:42:00.118Z,12.93
2023-04-29T08:47:03.034Z,12.61
2023-04-29T08:52:04.685Z,12.65
2023-04-29T08:57:07.320Z,12.97
2023-04-29T09:02:13.699Z,13.11
2023-04-29T09:07:15.427Z,13.21
2023-04-29T09:12:17.116Z,13.61
2023-04-29T09:17:18.807Z,13.67
2023-04-29T09:22:20.436Z,13.67
2023-04-29T09:27:29.461Z,14.26
2023-04-29T09:32:31.231Z,14.82
2023-04-29T09:37:33.277Z,14.40
2023-04-29T09:42:43.555Z,13.84
2023-04-29T09:47:45.399Z,13.72
2023-04-29T09:52:48.100Z,13.68
2023-04-29T09:57:56.245Z,13.47
2023-04-29T10:03:00.846Z,13.94
2023-04-29T10:08:03.202Z,14.56
2023-04-29T10:13:05.435Z,13.20
2023-04-29T10:18:36.301Z,11.86
2023-04-29T10:23:38.095Z,11.50
2023-04-29T10:28:41.220Z,12.12
2023-04-29T10:33:48.393Z,12.47
2023-04-29T10:38:53.927Z,12.27
2023-04-29T10:43:56.017Z,11.52
2023-04-29T10:49:01.630Z,10.85
2023-04-29T10:54:13.249Z,10.88
2023-04-29T10:59:22.559Z,11.01
2023-04-29T11:04:24.196Z,11.02
2023-04-29T11:09:30.906Z,11.32
2023-04-29T11:14:43.040Z,11.55
2023-04-29T11:19:47.484Z,11.94
2023-04-29T11:24:49.661Z,11.63
2023-04-29T11:29:58.282Z,11.23
2023-04-29T11:35:13.603Z,12.35
2023-04-29T11:40:16.904Z,13.01
2023-04-29T11:45:19.151Z,13.01
2023-04-29T11:50:21.037Z,13.53
2023-04-29T11:55:22.742Z,13.70
2023-04-29T12:00:24.769Z,13.57
2023-04-29T12:05:26.893Z,12.63
2023-04-29T12:10:28.648Z,12.33
2023-04-29T12:15:31.594Z,12.15
2023-04-29T12:20:33.286Z,12.34
2023-04-29T12:25:35.166Z,12.91
2023-04-29T12:30:37.553Z,13.58
2023-04-29T12:35:39.467Z,13.90
2023-04-29T12:40:41.316Z,13.82
2023-04-29T12:45:43.189Z,12.70
2023-04-29T12:50:50.078Z,11.60
2023-04-29T12:55:52.268Z,12.36
2023-04-29T13:00:54.106Z,13.17
2023-04-29T13:05:55.988Z,15.59
2023-04-29T13:10:57.647Z,16.60
2023-04-29T13:16:00.391Z,15.66
2023-04-29T13:21:02.644Z,14.03
2023-04-29T13:26:05.284Z,12.41
2023-04-29T13:31:06.898Z,11.74
2023-04-29T13:36:08.977Z,12.20
2023-04-29T13:41:14.719Z,12.91
2023-04-29T13:46:20.549Z,12.56
2023-04-29T13:52:07.205Z,11.86
2023-04-29T13:57:30.221Z,11.72
2023-04-29T14:02:23.269Z,12.76
2023-04-29T14:07:26.910Z,14.02
2023-04-29T14:12:28.730Z,13.42
2023-04-29T14:17:30.344Z,12.67
2023-04-29T14:22:32.021Z,12.76
2023-04-29T14:27:35.617Z,12.92
2023-04-29T14:32:37.256Z,13.35
2023-04-29T14:37:39.501Z,14.05
2023-04-29T14:42:41.132Z,14.21
2023-04-29T14:47:42.784Z,13.99
2023-04-29T14:52:44.375Z,12.88
2023-04-29T14:57:45.974Z,12.85
2023-04-29T15:02:47.684Z,13.09
2023-04-29T15:07:49.419Z,13.55
2023-04-29T15:12:52.371Z,12.42
2023-04-29T15:17:54.076Z,12.19
2023-04-29T15:22:55.825Z,12.09
2023-04-29T15:27:59.161Z,12.18
2023-04-29T15:33:01.012Z,12.18
2023-04-29T15:38:02.783Z,11.96
2023-04-29T15:43:04.511Z,11.44
2023-04-29T15:48:06.536Z,11.66
2023-04-29T15:53:08.164Z,11.44
2023-04-29T15:58:09.874Z,11.27
2023-04-29T16:03:11.583Z,11.07
2023-04-29T16:08:13.326Z,11.05
2023-04-29T16:13:15.141Z,10.94
2023-04-29T16:18:17.954Z,11.18
2023-04-29T16:23:19.663Z,11.51
2023-04-29T16:28:21.398Z,11.45
2023-04-29T16:33:23.156Z,11.13
2023-04-29T16:38:25.066Z,11.21
2023-04-29T16:43:26.983Z,11.18
2023-04-29T16:48:29.575Z,11.14
2023-04-29T16:53:31.634Z,10.81
2023-04-29T16:58:33.241Z,10.82
2023-04-29T17:03:35.592Z,10.70
2023-04-29T17:08:37.385Z,10.69
2023-04-29T17:13:39.165Z,10.60
2023-04-29T17:18:40.916Z,10.49
2023-04-29T17:23:42.594Z,10.41
2023-04-29T17:28:44.259Z,10.39
2023-04-29T17:33:54.942Z,10.29
2023-04-29T17:38:56.587Z,10.19
2023-04-29T17:43:58.197Z,10.09
2023-04-29T17:48:59.862Z,10.06
2023-04-29T17:54:04.770Z,10.01
2023-04-29T17:59:07.004Z,10.05
2023-04-29T18:04:08.871Z,9.97
2023-04-29T18:09:10.535Z,9.99
2023-04-29T18:14:12.207Z,9.88
2023-04-29T18:19:13.865Z,9.96
2023-04-29T18:24:16.092Z,10.00
2023-04-29T18:29:17.702Z,9.89
2023-04-29T18:34:19.392Z,9.90
2023-04-29T18:39:21.079Z,9.85
2023-04-29T18:44:22.776Z,9.79
2023-04-29T18:49:24.384Z,9.74
2023-04-29T18:54:26.206Z,9.62
2023-04-29T18:59:27.860Z,9.60
2023-04-29T19:04:29.757Z,9.57
2023-04-29T19:09:32.279Z,9.53
2023-04-29T19:14:34.213Z,9.61
2023-04-29T19:19:35.989Z,9.56
2023-04-29T19:24:38.877Z,9.55
2023-04-29T19:29:40.469Z,9.47
2023-04-29T19:34:42.205Z,9.50
2023-04-29T19:39:43.822Z,9.55
2023-04-29T19:44:45.638Z,9.60
2023-04-29T19:49:47.309Z,9.64
2023-04-29T19:54:48.899Z,9.68
2023-04-29T19:59:50.532Z,9.65
2023-04-29T20:04:52.122Z,9.52
2023-04-29T20:09:54.448Z,9.39
2023-04-29T20:14:56.394Z,9.51
2023-04-29T20:19:58.057Z,9.58
2023-04-29T20:24:59.681Z,9.65
2023-04-29T20:30:03.339Z,9.52
2023-04-29T20:35:05.688Z,9.44
2023-04-29T20:40:08.122Z,9.42
2023-04-29T20:45:11.571Z,9.25
2023-04-29T20:50:13.330Z,9.19
2023-04-29T20:55:15.951Z,9.25
2023-04-29T21:00:17.586Z,9.31
2023-04-29T21:05:19.306Z,9.29
2023-04-29T21:10:21.735Z,9.24
2023-04-29T21:15:23.749Z,9.32
2023-04-29T21:20:25.580Z,9.35
2023-04-29T21:25:27.312Z,9.31
2023-04-29T21:30:28.978Z,9.20
2023-04-29T21:35:30.702Z,9.24
2023-04-29T21:40:32.385Z,9.35
2023-04-29T21:45:35.304Z,9.31
2023-04-29T21:50:37.892Z,9.31
2023-04-29T21:55:40.838Z,9.33
2023-04-29T22:00:51.180Z,9.19
2023-04-29T22:05:53.180Z,9.19
2023-04-29T22:10:54.773Z,9.22
2023-04-29T22:15:56.399Z,9.21
2023-04-29T22:20:58.097Z,9.17
2023-04-29T22:25:59.702Z,9.24
2023-04-29T22:31:01.313Z,9.29
2023-04-29T22:36:04.006Z,9.24
2023-04-29T22:41:05.910Z,9.18
2023-04-29T22:46:07.568Z,9.05
2023-04-29T22:51:09.258Z,9.12
2023-04-29T22:56:10.862Z,9.17
2023-04-29T23:01:12.577Z,9.06
2023-04-29T23:06:14.341Z,9.12
2023-04-29T23:11:16.082Z,9.10
2023-04-29T23:16:17.721Z,9.00
2023-04-29T23:21:19.414Z,9.07
2023-04-29T23:26:23.178Z,9.06
2023-04-29T23:31:24.909Z,9.01
2023-04-29T23:36:27.620Z,9.04
2023-04-29T23:41:29.325Z,8.97
2023-04-29T23:46:31.064Z,8.97
2023-04-29T23:51:32.980Z,8.90
2023-04-29T23:56:34.595Z,8.71
